Time;durP1;ratioP1;P1;durP2;ratioP2;P2;SDS_P1;SDS_P2;PMS_P1;PMS_P2;Temp;Humidity;BMP_temperature;BMP_pressure;BME280_temperature;BME280_humidity;BME280_pressure;Samples;Min_cycle;Max_cycle;Signal;HPM_P1;HPM_P2
2022/05/19 00:03:31;;;;;;;9.77;2.72;;;;;;;;;;5057305;28;20032;-57
2022/05/19 00:05:59;;;;;;;6.50;3.30;;;;;;;;;;5064923;28;20032;-59
2022/05/19 00:08:25;;;;;;;11.02;4.05;;;;;;;;;;5058429;28;20112;-59
2022/05/19 00:10:52;;;;;;;7.43;3.08;;;;;;;;;;5067484;28;20017;-57
2022/05/19 00:13:18;;;;;;;6.00;3.03;;;;;;;;;;5061237;28;20654;-59
2022/05/19 00:15:44;;;;;;;5.88;2.80;;;;;;;;;;5067770;28;20085;-59
2022/05/19 00:18:10;;;;;;;6.45;2.90;;;;;;;;;;5057050;28;20017;-59
2022/05/19 00:20:36;;;;;;;11.20;3.15;;;;;;;;;;5069467;28;20513;-59
2022/05/19 00:23:02;;;;;;;7.28;3.35;;;;;;;;;;5056298;28;20025;-59
2022/05/19 00:25:30;;;;;;;9.63;2.75;;;;;;;;;;5068537;28;20432;-60
2022/05/19 00:27:56;;;;;;;8.48;2.75;;;;;;;;;;5065325;28;20029;-59
2022/05/19 00:30:22;;;;;;;7.22;3.05;;;;;;;;;;5060362;28;20024;-59
2022/05/19 00:32:48;;;;;;;8.43;3.22;;;;;;;;;;5058478;28;20017;-60
2022/05/19 00:35:15;;;;;;;6.00;2.40;;;;;;;;;;5065931;28;20396;-59
2022/05/19 00:37:41;;;;;;;5.55;2.78;;;;;;;;;;5061441;28;20044;-59
2022/05/19 00:40:08;;;;;;;8.70;3.17;;;;;;;;;;5063832;28;20119;-59
2022/05/19 00:42:46;;;;;;;7.00;3.10;;;;;;;;;;5065134;28;20025;-61
2022/05/19 00:45:20;;;;;;;8.75;3.35;;;;;;;;;;5054410;28;20025;-57
2022/05/19 00:47:50;;;;;;;7.07;2.97;;;;;;;;;;5058137;28;20021;-59
2022/05/19 00:50:16;;;;;;;;;;;;;;;;;;5061976;28;20115;-56
2022/05/19 00:52:43;;;;;;;7.57;2.75;;;;;;;;;;5065068;28;19992;-57
2022/05/19 00:55:12;;;;;;;6.93;3.30;;;;;;;;;;5059268;28;20079;-59
2022/05/19 00:57:40;;;;;;;6.20;3.03;;;;;;;;;;5066909;28;20029;-58
2022/05/19 01:00:18;;;;;;;6.45;2.80;;;;;;;;;;5061289;28;20496;-58
2022/05/19 01:03:10;;;;;;;7.03;3.05;;;;;;;;;;5071587;28;20047;-57
2022/05/19 01:05:45;;;;;;;6.45;3.13;;;;;;;;;;5049997;28;20120;-58
2022/05/19 01:08:16;;;;;;;10.25;3.83;;;;;;;;;;5055775;28;20017;-59
2022/05/19 01:10:43;;;;;;;6.43;3.10;;;;;;;;;;5061685;28;20036;-59
2022/05/19 01:13:11;;;;;;;6.45;3.13;;;;;;;;;;5056692;28;20116;-59
2022/05/19 01:15:39;;;;;;;7.40;3.10;;;;;;;;;;5061070;28;20738;-59
2022/05/19 01:18:05;;;;;;;6.00;3.20;;;;;;;;;;5070980;28;20025;-59
2022/05/19 01:20:31;;;;;;;3.95;2.50;;;;;;;;;;5060869;28;20036;-59
2022/05/19 01:22:57;;;;;;;6.78;3.20;;;;;;;;;;5072176;28;20131;-59
2022/05/19 01:25:42;;;;;;;7.82;3.50;;;;;;;;;;5064490;28;20071;-58
2022/05/19 01:28:08;;;;;;;6.95;3.75;;;;;;;;;;5052697;28;20107;-59
2022/05/19 01:30:34;;;;;;;5.72;2.97;;;;;;;;;;5063856;28;20742;-59
2022/05/19 01:33:00;;;;;;;6.60;3.22;;;;;;;;;;5052477;28;20462;-59
2022/05/19 01:35:32;;;;;;;5.82;3.20;;;;;;;;;;5064096;28;20418;-59
2022/05/19 01:37:59;;;;;;;6.65;3.10;;;;;;;;;;5060290;28;20032;-59
2022/05/19 01:40:45;;;;;;;8.02;3.42;;;;;;;;;;5067323;28;20155;-60
2022/05/19 01:43:30;;;;;;;6.70;3.35;;;;;;;;;;5041599;28;20486;-60
2022/05/19 01:45:59;;;;;;;6.57;2.90;;;;;;;;;;5058817;28;20031;-57
2022/05/19 01:48:30;;;;;;;5.68;2.80;;;;;;;;;;5071874;28;20841;-59
2022/05/19 01:51:15;;;;;;;5.65;3.45;;;;;;;;;;5066094;28;20116;-59
2022/05/19 01:53:47;;;;;;;6.20;2.80;;;;;;;;;;5052118;28;20475;-59
2022/05/19 01:56:27;;;;;;;6.10;2.88;;;;;;;;;;5068024;28;20440;-59
2022/05/19 01:58:53;;;;;;;7.57;3.30;;;;;;;;;;5051818;28;20033;-59
2022/05/19 02:01:23;;;;;;;5.90;2.97;;;;;;;;;;5063834;28;20127;-59
2022/05/19 02:03:49;;;;;;;;;;;;;;;;;;5051941;28;20438;-59
2022/05/19 02:06:20;;;;;;;6.88;2.95;;;;;;;;;;5064366;28;20050;-60
2022/05/19 02:08:49;;;;;;;6.60;3.35;;;;;;;;;;5051109;28;20056;-59
2022/05/19 02:11:23;;;;;;;7.15;3.75;;;;;;;;;;5065708;28;20035;-60
2022/05/19 02:13:49;;;;;;;6.63;3.67;;;;;;;;;;5051931;28;20052;-59
2022/05/19 02:16:16;;;;;;;7.22;3.33;;;;;;;;;;5055669;28;20120;-59
2022/05/19 02:18:43;;;;;;;4.78;3.08;;;;;;;;;;5068669;28;20543;-59
2022/05/19 02:21:09;;;;;;;6.53;3.40;;;;;;;;;;5063456;28;20032;-59
2022/05/19 02:23:36;;;;;;;5.78;3.25;;;;;;;;;;5066222;28;20029;-59
2022/05/19 02:26:03;;;;;;;7.97;3.47;;;;;;;;;;5067157;28;20046;-59
2022/05/19 02:28:44;;;;;;;6.82;3.10;;;;;;;;;;5062614;28;20128;-59
2022/05/19 02:31:10;;;;;;;7.13;3.38;;;;;;;;;;5067800;28;20057;-59
2022/05/19 02:33:36;;;;;;;6.00;3.22;;;;;;;;;;5063054;28;20455;-58
2022/05/19 02:36:04;;;;;;;8.45;3.65;;;;;;;;;;5066448;28;20024;-59
2022/05/19 02:38:30;;;;;;;6.93;2.88;;;;;;;;;;5060790;28;20024;-57
2022/05/19 02:40:56;;;;;;;6.55;3.53;;;;;;;;;;5060421;28;20039;-59
2022/05/19 02:43:22;;;;;;;6.38;3.92;;;;;;;;;;5068924;28;20024;-58
2022/05/19 02:45:48;;;;;;;5.78;3.47;;;;;;;;;;5070209;28;20103;-59
2022/05/19 02:48:15;;;;;;;7.63;3.92;;;;;;;;;;5065604;28;20063;-60
2022/05/19 02:50:42;;;;;;;5.35;3.40;;;;;;;;;;5050631;28;20039;-59
2022/05/19 02:53:09;;;;;;;6.47;3.40;;;;;;;;;;5063163;28;20032;-57
2022/05/19 02:55:35;;;;;;;6.63;3.20;;;;;;;;;;5050426;28;20428;-58
2022/05/19 02:58:01;;;;;;;5.75;3.05;;;;;;;;;;5063028;28;20027;-58
2022/05/19 03:00:27;;;;;;;6.45;3.22;;;;;;;;;;5050297;28;20033;-58
2022/05/19 03:02:54;;;;;;;6.45;3.38;;;;;;;;;;5062140;28;20020;-59
2022/05/19 03:05:22;;;;;;;6.25;3.47;;;;;;;;;;5070217;28;20035;-59
2022/05/19 03:07:50;;;;;;;5.78;3.47;;;;;;;;;;5062269;28;20025;-58
2022/05/19 03:10:16;;;;;;;6.75;3.75;;;;;;;;;;5066425;28;20077;-58
2022/05/19 03:12:42;;;;;;;5.97;3.40;;;;;;;;;;5066487;28;20055;-58
2022/05/19 03:15:09;;;;;;;8.50;3.85;;;;;;;;;;5057364;28;20028;-58
2022/05/19 03:17:35;;;;;;;6.60;3.42;;;;;;;;;;5053453;28;20041;-58
2022/05/19 03:20:02;;;;;;;6.30;3.33;;;;;;;;;;5067648;28;20028;-59
2022/05/19 03:22:28;;;;;;;6.15;3.75;;;;;;;;;;5065375;28;20021;-57
2022/05/19 03:24:54;;;;;;;6.43;3.50;;;;;;;;;;5061483;28;20226;-59
2022/05/19 03:27:21;;;;;;;5.65;3.40;;;;;;;;;;5050983;28;20029;-58
2022/05/19 03:29:48;;;;;;;6.40;3.35;;;;;;;;;;5058830;28;20024;-57
2022/05/19 03:32:14;;;;;;;6.18;3.28;;;;;;;;;;5069569;28;20025;-58
2022/05/19 03:34:40;;;;;;;7.20;3.47;;;;;;;;;;5057472;28;20087;-59
2022/05/19 03:37:06;;;;;;;5.57;3.20;;;;;;;;;;5068982;28;20056;-59
2022/05/19 03:39:33;;;;;;;6.95;3.20;;;;;;;;;;5056744;28;20033;-59
2022/05/19 03:41:59;;;;;;;7.55;3.85;;;;;;;;;;5070024;28;20082;-59
2022/05/19 03:44:25;;;;;;;6.07;3.53;;;;;;;;;;5065683;28;20194;-59
2022/05/19 03:46:51;;;;;;;5.00;3.45;;;;;;;;;;5050514;28;20434;-59
2022/05/19 03:49:17;;;;;;;6.60;3.47;;;;;;;;;;5058015;28;20036;-59
2022/05/19 03:51:43;;;;;;;6.57;3.28;;;;;;;;;;5053119;28;20032;-60
2022/05/19 03:54:10;;;;;;;5.28;3.50;;;;;;;;;;5059039;28;20096;-60
2022/05/19 03:56:36;;;;;;;4.88;3.20;;;;;;;;;;5068938;28;20062;-60
2022/05/19 03:59:02;;;;;;;6.10;3.17;;;;;;;;;;5064706;28;20485;-59
2022/05/19 04:01:29;;;;;;;6.47;3.75;;;;;;;;;;5060124;28;20120;-59
2022/05/19 04:03:55;;;;;;;6.22;3.35;;;;;;;;;;5064863;28;20419;-59
2022/05/19 04:06:21;;;;;;;5.95;2.70;;;;;;;;;;5050904;28;20073;-59
2022/05/19 04:08:47;;;;;;;5.90;3.22;;;;;;;;;;5051904;28;20398;-59
2022/05/19 04:11:14;;;;;;;5.70;3.35;;;;;;;;;;5067049;28;20024;-59
2022/05/19 04:13:40;;;;;;;4.20;2.53;;;;;;;;;;5068797;28;20094;-60
2022/05/19 04:16:06;;;;;;;5.68;3.38;;;;;;;;;;5060878;28;20395;-59
2022/05/19 04:18:32;;;;;;;9.70;3.60;;;;;;;;;;5048811;28;20040;-59
2022/05/19 04:20:58;;;;;;;21.23;6.10;;;;;;;;;;5061573;28;20028;-59
2022/05/19 04:23:24;;;;;;;16.90;6.72;;;;;;;;;;5053696;28;20610;-59
2022/05/19 04:25:50;;;;;;;22.67;8.27;;;;;;;;;;5065157;28;20446;-59
2022/05/19 04:28:17;;;;;;;30.48;9.80;;;;;;;;;;5060242;28;20024;-59
2022/05/19 04:30:43;;;;;;;29.38;9.07;;;;;;;;;;5068876;28;20092;-59
2022/05/19 04:33:10;;;;;;;20.83;9.95;;;;;;;;;;5060961;28;20079;-58
2022/05/19 04:35:36;;;;;;;33.08;9.95;;;;;;;;;;5056751;28;20076;-59
2022/05/19 04:38:13;;;;;;;24.27;8.30;;;;;;;;;;5057768;28;20067;-60
2022/05/19 04:40:41;;;;;;;21.85;8.90;;;;;;;;;;5061326;28;20037;-59
2022/05/19 04:43:08;;;;;;;23.98;7.50;;;;;;;;;;5062646;28;20138;-60
2022/05/19 04:45:34;;;;;;;20.38;8.57;;;;;;;;;;5064662;28;20024;-59
2022/05/19 04:48:00;;;;;;;31.88;7.90;;;;;;;;;;5061529;28;20029;-59
2022/05/19 04:50:27;;;;;;;20.98;7.65;;;;;;;;;;5067064;28;20028;-58
2022/05/19 04:52:53;;;;;;;18.83;7.35;;;;;;;;;;5057502;28;20087;-60
2022/05/19 04:55:19;;;;;;;18.15;7.35;;;;;;;;;;5066995;28;20052;-57
2022/05/19 04:57:46;;;;;;;24.40;7.80;;;;;;;;;;5060030;28;20129;-59
2022/05/19 05:00:13;;;;;;;26.35;7.50;;;;;;;;;;5048482;28;20487;-58
2022/05/19 05:02:40;;;;;;;16.83;7.60;;;;;;;;;;5059882;28;20021;-56
2022/05/19 05:05:06;;;;;;;22.75;7.72;;;;;;;;;;5048215;28;20039;-58
2022/05/19 05:07:33;;;;;;;19.40;6.63;;;;;;;;;;5060614;28;20151;-59
2022/05/19 05:09:59;;;;;;;23.50;7.32;;;;;;;;;;5048688;28;20036;-60
2022/05/19 05:12:25;;;;;;;19.08;7.10;;;;;;;;;;5060410;28;20035;-59
2022/05/19 05:14:52;;;;;;;21.63;7.15;;;;;;;;;;5048570;28;20025;-59
2022/05/19 05:17:18;;;;;;;15.90;7.10;;;;;;;;;;5058202;28;20135;-58
2022/05/19 05:19:44;;;;;;;18.73;6.30;;;;;;;;;;5051264;28;20041;-59
2022/05/19 05:22:10;;;;;;;12.73;6.50;;;;;;;;;;5054902;28;20025;-59
2022/05/19 05:24:36;;;;;;;17.63;6.20;;;;;;;;;;5053970;28;20485;-59
2022/05/19 05:27:05;;;;;;;13.95;5.47;;;;;;;;;;5052908;28;20550;-59
2022/05/19 05:29:31;;;;;;;11.68;5.25;;;;;;;;;;5055184;28;20028;-59
2022/05/19 05:31:57;;;;;;;16.85;5.53;;;;;;;;;;5050547;28;20116;-59
2022/05/19 05:34:24;;;;;;;15.20;5.80;;;;;;;;;;5057888;28;20422;-59
2022/05/19 05:36:50;;;;;;;16.23;5.75;;;;;;;;;;5049343;28;20049;-59
2022/05/19 05:39:16;;;;;;;11.18;4.88;;;;;;;;;;5059031;28;20506;-59
2022/05/19 05:41:42;;;;;;;13.45;4.93;;;;;;;;;;5066616;28;20107;-59
2022/05/19 05:44:08;;;;;;;18.75;5.35;;;;;;;;;;5065038;28;20020;-60
2022/05/19 05:46:35;;;;;;;15.88;4.22;;;;;;;;;;5070550;28;20111;-59
2022/05/19 05:49:01;;;;;;;9.88;3.47;;;;;;;;;;5068233;28;20028;-59
2022/05/19 05:51:27;;;;;;;11.60;2.60;;;;;;;;;;5071514;28;20514;-59
2022/05/19 05:53:53;;;;;;;5.93;2.63;;;;;;;;;;5066915;28;20562;-60
2022/05/19 05:56:20;;;;;;;7.25;2.40;;;;;;;;;;5060523;28;20231;-61
2022/05/19 05:58:47;;;;;;;7.53;2.72;;;;;;;;;;5070503;28;20050;-58
2022/05/19 06:01:14;;;;;;;5.25;2.20;;;;;;;;;;5053918;28;20067;-58
2022/05/19 06:03:41;;;;;;;6.88;2.83;;;;;;;;;;5061479;28;20032;-59
2022/05/19 06:06:08;;;;;;;8.48;2.72;;;;;;;;;;5069329;28;20115;-58
2022/05/19 06:08:34;;;;;;;7.53;2.28;;;;;;;;;;5066730;28;20587;-59
2022/05/19 06:11:01;;;;;;;7.25;2.53;;;;;;;;;;5058112;28;20626;-58
2022/05/19 06:13:27;;;;;;;7.35;2.60;;;;;;;;;;5058652;28;20040;-59
2022/05/19 06:15:53;;;;;;;5.13;2.67;;;;;;;;;;5071383;28;20028;-59
2022/05/19 06:18:19;;;;;;;8.10;2.17;;;;;;;;;;5069377;28;20100;-59
2022/05/19 06:20:46;;;;;;;6.50;2.03;;;;;;;;;;5067712;28;20135;-58
2022/05/19 06:23:12;;;;;;;10.77;2.60;;;;;;;;;;5069657;28;20141;-59
2022/05/19 06:25:39;;;;;;;12.90;2.50;;;;;;;;;;5062193;28;20100;-58
2022/05/19 06:28:05;;;;;;;8.50;2.28;;;;;;;;;;5052002;28;20174;-59
2022/05/19 06:30:31;;;;;;;6.10;1.90;;;;;;;;;;5058026;28;20100;-57
2022/05/19 06:32:58;;;;;;;7.13;1.95;;;;;;;;;;5071164;28;20045;-57
2022/05/19 06:35:27;;;;;;;4.65;1.90;;;;;;;;;;5068407;28;20045;-58
2022/05/19 06:37:53;;;;;;;5.28;2.28;;;;;;;;;;5050852;28;20476;-59
2022/05/19 06:40:19;;;;;;;6.65;2.33;;;;;;;;;;5061822;28;20045;-58
2022/05/19 06:42:46;;;;;;;7.07;2.33;;;;;;;;;;5070767;28;20024;-59
2022/05/19 06:45:14;;;;;;;9.43;3.00;;;;;;;;;;5058495;28;20031;-59
2022/05/19 06:47:40;;;;;;;9.50;2.75;;;;;;;;;;5069173;28;20028;-58
2022/05/19 06:50:08;;;;;;;8.50;2.50;;;;;;;;;;5066256;28;20036;-58
2022/05/19 06:52:41;;;;;;;10.43;2.53;;;;;;;;;;5055668;28;20041;-58
2022/05/19 06:55:07;;;;;;;6.97;2.35;;;;;;;;;;5066124;28;20115;-58
2022/05/19 06:57:33;;;;;;;10.38;2.47;;;;;;;;;;5069607;28;20032;-58
2022/05/19 06:59:59;;;;;;;6.75;2.60;;;;;;;;;;5068991;28;20033;-59
2022/05/19 07:02:26;;;;;;;10.77;2.30;;;;;;;;;;5070624;28;20554;-59
2022/05/19 07:04:52;;;;;;;7.53;2.65;;;;;;;;;;5066335;28;20044;-59
2022/05/19 07:07:19;;;;;;;13.55;2.92;;;;;;;;;;5060413;28;20025;-58
2022/05/19 07:09:45;;;;;;;8.15;3.05;;;;;;;;;;5061804;28;20139;-59
2022/05/19 07:12:11;;;;;;;13.50;2.60;;;;;;;;;;5068246;28;20032;-59
2022/05/19 07:14:37;;;;;;;7.78;2.67;;;;;;;;;;5068971;28;20024;-59
2022/05/19 07:17:04;;;;;;;7.65;2.85;;;;;;;;;;5053083;28;20029;-59
2022/05/19 07:22:19;;;;;;;8.90;2.60;;;;;;;;;;5063841;28;20051;-59
2022/05/19 07:24:46;;;;;;;9.40;2.40;;;;;;;;;;5049111;28;20112;-59
2022/05/19 07:27:13;;;;;;;5.65;2.88;;;;;;;;;;5060542;28;20131;-59
2022/05/19 07:29:41;;;;;;;10.15;2.70;;;;;;;;;;5047904;28;20446;-58
2022/05/19 07:32:08;;;;;;;11.05;2.45;;;;;;;;;;5060779;28;20407;-59
2022/05/19 07:34:34;;;;;;;8.50;2.42;;;;;;;;;;5047967;28;20045;-60
2022/05/19 07:37:00;;;;;;;5.10;2.33;;;;;;;;;;5058288;28;20104;-57
2022/05/19 07:39:27;;;;;;;7.03;2.47;;;;;;;;;;5050720;28;20116;-62
2022/05/19 07:41:55;;;;;;;7.47;2.38;;;;;;;;;;5064636;28;20025;-59
2022/05/19 07:44:21;;;;;;;6.63;2.33;;;;;;;;;;5069123;28;20463;-59
2022/05/19 07:46:48;;;;;;;6.63;2.58;;;;;;;;;;5063940;28;20078;-59
2022/05/19 07:49:14;;;;;;;10.57;2.72;;;;;;;;;;5062458;28;20029;-59
2022/05/19 07:51:41;;;;;;;6.25;2.05;;;;;;;;;;5068069;28;20055;-58
2022/05/19 07:54:12;;;;;;;7.32;2.60;;;;;;;;;;5058487;28;20028;-58
2022/05/19 07:56:39;;;;;;;18.20;3.33;;;;;;;;;;5050764;28;20017;-59
2022/05/19 07:59:05;;;;;;;7.80;2.05;;;;;;;;;;5060496;28;20087;-59
2022/05/19 08:01:32;;;;;;;6.78;2.63;;;;;;;;;;5050604;28;20479;-59
2022/05/19 08:03:58;;;;;;;4.47;2.47;;;;;;;;;;5060804;28;20498;-58
2022/05/19 08:06:25;;;;;;;7.00;2.25;;;;;;;;;;5064394;28;20035;-57
2022/05/19 08:08:51;;;;;;;4.40;2.20;;;;;;;;;;5056634;28;20401;-58
2022/05/19 08:11:17;;;;;;;6.43;2.40;;;;;;;;;;5069107;28;20078;-59
2022/05/19 08:16:28;;;;;;;5.97;2.50;;;;;;;;;;5069315;28;20044;-60
2022/05/19 08:18:55;;;;;;;7.93;2.20;;;;;;;;;;5055990;28;20041;-59
2022/05/19 08:21:22;;;;;;;5.88;2.75;;;;;;;;;;5068943;28;20588;-60
2022/05/19 08:23:52;;;;;;;5.70;2.33;;;;;;;;;;5057070;28;20033;-59
2022/05/19 08:26:18;;;;;;;3.90;2.05;;;;;;;;;;5048804;28;20024;-59
2022/05/19 08:28:45;;;;;;;6.63;2.17;;;;;;;;;;5058671;28;20055;-59
2022/05/19 08:31:12;;;;;;;3.55;1.98;;;;;;;;;;5051111;28;20025;-60
2022/05/19 08:33:40;;;;;;;5.20;2.22;;;;;;;;;;5052966;28;20491;-59
2022/05/19 08:36:07;;;;;;;4.90;2.28;;;;;;;;;;5064371;28;20028;-60
2022/05/19 08:38:34;;;;;;;4.95;2.28;;;;;;;;;;5062414;28;20023;-60
2022/05/19 08:41:14;;;;;;;6.28;2.40;;;;;;;;;;5061712;28;20543;-59
2022/05/19 08:43:46;;;;;;;6.55;2.20;;;;;;;;;;5064381;28;20104;-59
2022/05/19 08:46:17;;;;;;;5.43;2.40;;;;;;;;;;5061570;28;20036;-60
2022/05/19 08:48:44;;;;;;;5.25;2.33;;;;;;;;;;5064156;28;20059;-59
2022/05/19 08:51:12;;;;;;;3.55;1.88;;;;;;;;;;5060456;28;20135;-59
2022/05/19 08:53:40;;;;;;;8.43;2.30;;;;;;;;;;5066470;28;20028;-59
2022/05/19 08:56:15;;;;;;;5.63;2.53;;;;;;;;;;5058182;28;20428;-60
2022/05/19 08:58:46;;;;;;;4.15;2.20;;;;;;;;;;5065754;28;20483;-58
2022/05/19 09:01:12;;;;;;;4.90;2.15;;;;;;;;;;5057812;28;20156;-60
2022/05/19 09:03:41;;;;;;;5.65;2.28;;;;;;;;;;5066979;28;20028;-58
2022/05/19 09:06:30;;;;;;;5.88;1.92;;;;;;;;;;5062994;28;20039;-57
2022/05/19 09:09:05;;;;;;;5.35;2.05;;;;;;;;;;5066280;28;20036;-59
2022/05/19 09:11:39;;;;;;;4.13;1.90;;;;;;;;;;5057239;28;20107;-60
2022/05/19 09:14:24;;;;;;;5.00;2.08;;;;;;;;;;5066750;28;20033;-59
2022/05/19 09:16:51;;;;;;;6.15;2.28;;;;;;;;;;5058573;28;20059;-59
2022/05/19 09:19:30;;;;;;;4.82;2.05;;;;;;;;;;5066633;28;20041;-59
2022/05/19 09:22:12;;;;;;;6.23;2.20;;;;;;;;;;5062053;28;20470;-59
2022/05/19 09:24:39;;;;;;;6.78;2.10;;;;;;;;;;5070357;28;20150;-59
2022/05/19 09:27:06;;;;;;;5.65;2.25;;;;;;;;;;5062703;28;20036;-59
2022/05/19 09:29:37;;;;;;;4.43;1.70;;;;;;;;;;5069099;28;20032;-59
2022/05/19 09:32:09;;;;;;;6.05;1.92;;;;;;;;;;5063519;28;20107;-59
2022/05/19 09:34:36;;;;;;;6.90;1.65;;;;;;;;;;5059246;28;20127;-59
2022/05/19 09:37:07;;;;;;;6.75;1.92;;;;;;;;;;5068576;28;20380;-59
2022/05/19 09:39:35;;;;;;;6.60;2.05;;;;;;;;;;5055726;28;20132;-59
2022/05/19 09:42:09;;;;;;;6.00;2.50;;;;;;;;;;5069390;28;20103;-60
2022/05/19 09:44:42;;;;;;;9.55;2.85;;;;;;;;;;5071484;28;20170;-59
2022/05/19 09:47:24;;;;;;;10.30;2.55;;;;;;;;;;5064109;28;20487;-60
2022/05/19 09:49:53;;;;;;;6.10;2.13;;;;;;;;;;5058169;28;20115;-58
2022/05/19 09:52:23;;;;;;;7.88;2.90;;;;;;;;;;5065232;28;20031;-58
2022/05/19 09:54:53;;;;;;;5.05;2.83;;;;;;;;;;5069492;28;20055;-58
2022/05/19 09:57:24;;;;;;;7.78;3.20;;;;;;;;;;5062869;28;20093;-60
2022/05/19 09:59:52;;;;;;;5.60;2.95;;;;;;;;;;5063599;28;20040;-58
2022/05/19 10:02:18;;;;;;;7.88;4.22;;;;;;;;;;5064887;28;20039;-59
2022/05/19 10:04:55;;;;;;;8.25;3.90;;;;;;;;;;5062828;28;20024;-59
2022/05/19 10:07:24;;;;;;;8.60;3.63;;;;;;;;;;5061578;28;20032;-60
2022/05/19 10:09:50;;;;;;;8.70;3.60;;;;;;;;;;5065010;28;20127;-59
2022/05/19 10:12:22;;;;;;;7.82;3.65;;;;;;;;;;5062496;28;20064;-59
2022/05/19 10:14:51;;;;;;;6.22;3.22;;;;;;;;;;5064254;28;20117;-58
2022/05/19 10:17:31;;;;;;;8.90;3.80;;;;;;;;;;5062842;28;20048;-58
2022/05/19 10:20:18;;;;;;;8.23;3.50;;;;;;;;;;5064511;28;20302;-57
2022/05/19 10:22:50;;;;;;;7.18;3.72;;;;;;;;;;5063409;28;20026;-58
2022/05/19 10:25:22;;;;;;;7.05;3.20;;;;;;;;;;5062406;28;20027;-59
2022/05/19 10:31:04;;;;;;;6.50;3.25;;;;;;;;;;5062658;28;20251;-59
2022/05/19 10:33:42;;;;;;;7.80;3.05;;;;;;;;;;5062121;28;20033;-59
2022/05/19 10:36:24;;;;;;;5.90;3.17;;;;;;;;;;5064365;28;20033;-59
2022/05/19 10:38:59;;;;;;;6.15;3.08;;;;;;;;;;5063238;28;20117;-60
2022/05/19 10:41:25;;;;;;;6.13;3.30;;;;;;;;;;5061481;28;20550;-58
2022/05/19 10:43:57;;;;;;;6.85;2.88;;;;;;;;;;5063461;28;20065;-59
2022/05/19 10:46:27;;;;;;;5.05;2.80;;;;;;;;;;5062316;28;20036;-59
2022/05/19 10:49:03;;;;;;;6.40;3.30;;;;;;;;;;5062458;28;20041;-59
2022/05/19 10:51:58;;;;;;;5.78;3.00;;;;;;;;;;5064185;28;20166;-59
2022/05/19 10:54:30;;;;;;;6.25;2.95;;;;;;;;;;5009107;28;20065;-59
2022/05/19 10:57:09;;;;;;;5.45;2.42;;;;;;;;;;5063852;28;20437;-57
2022/05/19 10:59:57;;;;;;;5.95;3.08;;;;;;;;;;5064495;28;20035;-59
2022/05/19 11:02:26;;;;;;;5.68;2.63;;;;;;;;;;5064204;28;20036;-59
2022/05/19 11:05:04;;;;;;;5.30;2.58;;;;;;;;;;5063686;28;20086;-60
2022/05/19 11:07:41;;;;;;;5.15;2.83;;;;;;;;;;5062150;28;20025;-59
2022/05/19 11:10:32;;;;;;;4.53;2.55;;;;;;;;;;5063676;28;20021;-60
2022/05/19 11:13:08;;;;;;;6.00;2.80;;;;;;;;;;5063933;28;20059;-58
2022/05/19 11:15:45;;;;;;;5.25;2.80;;;;;;;;;;5062654;28;20044;-60
2022/05/19 11:18:13;;;;;;;7.63;2.95;;;;;;;;;;5062206;28;20039;-59
2022/05/19 11:20:39;;;;;;;7.43;3.40;;;;;;;;;;5063748;28;20483;-59
2022/05/19 11:23:18;;;;;;;9.07;2.80;;;;;;;;;;5062556;28;20118;-60
2022/05/19 11:28:37;;;;;;;5.47;2.65;;;;;;;;;;5062497;28;20039;-59
2022/05/19 11:31:10;;;;;;;7.50;3.03;;;;;;;;;;5061709;28;20479;-59
2022/05/19 11:33:39;;;;;;;6.40;3.08;;;;;;;;;;5060497;28;20024;-58
2022/05/19 11:36:12;;;;;;;5.75;2.92;;;;;;;;;;5061940;28;20043;-59
2022/05/19 11:38:42;;;;;;;7.35;3.50;;;;;;;;;;5059947;28;20128;-60
2022/05/19 11:41:13;;;;;;;7.40;3.35;;;;;;;;;;5061141;28;20028;-59
2022/05/19 11:43:58;;;;;;;6.47;2.97;;;;;;;;;;5061729;28;20048;-59
2022/05/19 11:46:45;;;;;;;8.23;3.00;;;;;;;;;;5061096;28;20799;-60
2022/05/19 11:55:20;;;;;;;6.13;3.60;;;;;;;;;;5060547;28;20089;-59
2022/05/19 11:57:58;;;;;;;7.50;3.40;;;;;;;;;;5062212;28;20486;-60
2022/05/19 12:00:33;;;;;;;6.40;2.97;;;;;;;;;;5060455;28;20045;-60
2022/05/19 12:03:09;;;;;;;7.65;3.08;;;;;;;;;;5061933;28;20113;-59
2022/05/19 12:05:41;;;;;;;6.18;2.75;;;;;;;;;;5060979;28;20088;-60
2022/05/19 12:08:21;;;;;;;11.35;3.67;;;;;;;;;;5061426;28;20490;-58
2022/05/19 12:10:55;;;;;;;7.15;3.33;;;;;;;;;;5060278;28;20032;-59
2022/05/19 12:13:25;;;;;;;10.68;3.45;;;;;;;;;;5061625;28;20036;-60
2022/05/19 12:15:55;;;;;;;6.78;3.53;;;;;;;;;;5059280;28;20028;-60
2022/05/19 12:18:24;;;;;;;8.23;3.50;;;;;;;;;;5061075;28;20028;-61
2022/05/19 12:20:53;;;;;;;5.40;3.22;;;;;;;;;;5062861;28;20025;-60
2022/05/19 12:23:30;;;;;;;7.05;3.42;;;;;;;;;;5058216;28;20036;-60
2022/05/19 12:25:59;;;;;;;14.70;3.28;;;;;;;;;;5062068;28;20116;-58
2022/05/19 12:28:31;;;;;;;10.82;3.70;;;;;;;;;;5060755;28;20103;-59
2022/05/19 12:33:51;;;;;;;11.80;3.33;;;;;;;;;;5061949;28;20109;-60
2022/05/19 12:36:37;;;;;;;11.73;3.70;;;;;;;;;;5060716;28;20028;-60
2022/05/19 12:39:18;;;;;;;13.20;3.30;;;;;;;;;;5060931;28;20028;-60
2022/05/19 12:41:50;;;;;;;11.63;3.80;;;;;;;;;;5061303;28;20047;-60
2022/05/19 12:44:26;;;;;;;13.35;4.10;;;;;;;;;;5060356;28;20107;-59
2022/05/19 12:47:04;;;;;;;11.30;3.03;;;;;;;;;;5059029;28;20055;-58
2022/05/19 12:49:33;;;;;;;13.98;3.60;;;;;;;;;;5062518;28;20035;-58
2022/05/19 12:52:00;;;;;;;12.25;2.88;;;;;;;;;;5061539;28;20024;-60
2022/05/19 12:54:27;;;;;;;13.05;3.90;;;;;;;;;;5059043;28;20103;-60
2022/05/19 12:57:16;;;;;;;10.98;2.90;;;;;;;;;;5058848;28;20210;-60
2022/05/19 12:59:45;;;;;;;12.70;3.72;;;;;;;;;;5050572;28;20040;-59
2022/05/19 13:02:18;;;;;;;10.98;2.90;;;;;;;;;;5060424;28;20016;-59
2022/05/19 13:04:46;;;;;;;15.65;3.22;;;;;;;;;;5061783;28;20067;-59
2022/05/19 13:07:15;;;;;;;14.73;3.58;;;;;;;;;;5060629;28;20044;-59
2022/05/19 13:09:42;;;;;;;15.93;3.05;;;;;;;;;;5060617;28;20046;-59
2022/05/19 13:12:19;;;;;;;10.55;2.83;;;;;;;;;;5062699;28;20024;-60
2022/05/19 13:14:47;;;;;;;7.85;2.42;;;;;;;;;;5062692;28;20033;-59
2022/05/19 13:17:25;;;;;;;9.52;3.33;;;;;;;;;;5059403;28;20040;-59
2022/05/19 13:19:51;;;;;;;9.82;2.83;;;;;;;;;;5060216;28;20032;-59
2022/05/19 13:22:26;;;;;;;5.75;2.70;;;;;;;;;;5059080;28;20123;-59
2022/05/19 13:24:53;;;;;;;6.43;2.63;;;;;;;;;;5060751;28;20033;-59
2022/05/19 13:30:26;;;;;;;14.07;3.42;;;;;;;;;;5060857;28;20410;-59
2022/05/19 13:33:03;;;;;;;13.88;2.80;;;;;;;;;;5060678;28;20047;-59
2022/05/19 13:35:29;;;;;;;11.43;2.97;;;;;;;;;;5060694;28;20059;-59
2022/05/19 13:37:57;;;;;;;10.05;2.85;;;;;;;;;;5061209;28;20029;-59
2022/05/19 13:40:36;;;;;;;26.77;3.38;;;;;;;;;;5060696;28;20040;-59
2022/05/19 13:43:03;;;;;;;13.65;3.50;;;;;;;;;;5060292;28;20123;-59
2022/05/19 13:45:35;;;;;;;14.60;2.83;;;;;;;;;;5061104;28;20032;-57
2022/05/19 13:48:01;;;;;;;8.80;3.13;;;;;;;;;;5060247;28;20036;-59
2022/05/19 13:50:31;;;;;;;15.20;3.30;;;;;;;;;;5060373;28;20442;-59
2022/05/19 13:53:07;;;;;;;11.90;3.00;;;;;;;;;;5061030;28;20033;-59
2022/05/19 13:55:35;;;;;;;13.43;3.33;;;;;;;;;;5061879;28;20048;-60
2022/05/19 13:58:01;;;;;;;9.98;2.80;;;;;;;;;;5062004;28;20390;-57
2022/05/19 14:00:29;;;;;;;8.73;2.88;;;;;;;;;;5060411;28;20040;-59
2022/05/19 14:02:57;;;;;;;9.80;3.05;;;;;;;;;;5061516;28;20538;-60
2022/05/19 14:05:27;;;;;;;14.32;3.63;;;;;;;;;;5061832;28;20036;-59
2022/05/19 14:07:54;;;;;;;9.73;3.17;;;;;;;;;;5065107;28;20799;-59
2022/05/19 14:10:23;;;;;;;10.80;2.88;;;;;;;;;;5063685;28;20034;-60
2022/05/19 14:12:54;;;;;;;9.93;3.13;;;;;;;;;;5063431;28;20493;-59
2022/05/19 14:15:22;;;;;;;12.88;2.65;;;;;;;;;;5064484;28;20055;-59
2022/05/19 14:17:56;;;;;;;21.50;3.10;;;;;;;;;;5064826;28;20032;-60
2022/05/19 14:20:30;;;;;;;16.10;3.65;;;;;;;;;;5061714;28;20120;-59
2022/05/19 14:22:56;;;;;;;9.50;2.90;;;;;;;;;;5064063;28;20115;-63
2022/05/19 14:25:23;;;;;;;19.90;3.80;;;;;;;;;;5064113;28;20020;-65
2022/05/19 14:28:13;;;;;;;11.60;3.05;;;;;;;;;;5064503;28;20047;-65
2022/05/19 14:30:41;;;;;;;17.10;3.33;;;;;;;;;;5052796;28;20045;-59
2022/05/19 14:33:08;;;;;;;18.00;3.72;;;;;;;;;;5062657;28;20380;-59
2022/05/19 14:35:37;;;;;;;14.07;3.55;;;;;;;;;;5062738;28;20055;-59
2022/05/19 14:38:05;;;;;;;18.83;3.95;;;;;;;;;;5063632;28;20127;-59
2022/05/19 14:43:26;;;;;;;17.77;2.87;;;;;;;;;;5063016;28;20536;-60
2022/05/19 14:45:54;;;;;;;16.10;3.20;;;;;;;;;;5062951;28;20397;-60
2022/05/19 14:48:39;;;;;;;16.45;3.10;;;;;;;;;;5061273;28;20033;-59
2022/05/19 14:51:09;;;;;;;16.30;4.07;;;;;;;;;;5063034;28;20062;-60
2022/05/19 14:53:36;;;;;;;15.73;2.88;;;;;;;;;;5063206;28;20778;-59
2022/05/19 14:56:05;;;;;;;8.75;2.50;;;;;;;;;;5061770;28;20036;-60
2022/05/19 14:58:35;;;;;;;16.40;3.07;;;;;;;;;;5062699;28;20525;-60
2022/05/19 15:01:02;;;;;;;24.55;3.58;;;;;;;;;;5059584;28;20062;-59
2022/05/19 15:03:28;;;;;;;16.83;3.15;;;;;;;;;;5061169;28;20032;-60
2022/05/19 15:05:54;;;;;;;13.25;3.75;;;;;;;;;;5060367;28;20397;-59
2022/05/19 15:08:20;;;;;;;13.32;3.00;;;;;;;;;;5061872;28;20029;-59
2022/05/19 15:10:46;;;;;;;18.15;3.38;;;;;;;;;;5061530;28;20112;-60
2022/05/19 15:13:13;;;;;;;11.95;3.33;;;;;;;;;;5059916;28;20029;-60
2022/05/19 15:15:40;;;;;;;10.88;3.10;;;;;;;;;;5060623;28;20040;-60
2022/05/19 15:18:07;;;;;;;12.82;2.80;;;;;;;;;;5060225;28;20102;-60
2022/05/19 15:20:34;;;;;;;13.38;2.97;;;;;;;;;;5060282;28;20597;-59
2022/05/19 15:23:02;;;;;;;13.15;3.25;;;;;;;;;;5060378;28;20075;-60